Time;durP1;ratioP1;P1;durP2;ratioP2;P2;SDS_P1;SDS_P2;PMS_P1;PMS_P2;Temp;Humidity;BMP_temperature;BMP_pressure;BME280_temperature;BME280_humidity;BME280_pressure;Samples;Min_cycle;Max_cycle;Signal;HPM_P1;HPM_P2
2021/07/05 00:01:19;;;;;;;0.83;0.83;;;15.30;99.90;;;;;;4951667;28;20206;-71
2021/07/05 00:03:45;;;;;;;0.00;0.00;;;15.30;99.90;;;;;;4954593;28;20249;-75
2021/07/05 00:06:12;;;;;;;0.00;0.00;;;15.20;99.90;;;;;;4966593;28;20230;-74
2021/07/05 00:08:41;;;;;;;0.00;0.00;;;15.20;99.90;;;;;;4952668;28;20716;-73
2021/07/05 00:11:08;;;;;;;0.00;0.00;;;15.10;99.90;;;;;;4950186;28;20231;-72
2021/07/05 00:13:35;;;;;;;0.00;0.00;;;15.00;99.90;;;;;;4954463;28;20668;-74
2021/07/05 00:16:03;;;;;;;0.00;0.00;;;15.00;99.90;;;;;;4950742;29;20636;-73
2021/07/05 00:18:30;;;;;;;0.00;0.00;;;15.00;99.90;;;;;;4951429;28;20210;-73
2021/07/05 00:20:57;;;;;;;0.00;0.00;;;14.90;99.90;;;;;;4962214;28;20393;-74
2021/07/05 00:23:25;;;;;;;0.00;0.00;;;14.90;99.90;;;;;;4962520;28;20625;-73
2021/07/05 00:25:53;;;;;;;0.00;0.00;;;14.80;99.90;;;;;;4961395;28;20773;-70
2021/07/05 00:28:20;;;;;;;0.90;0.67;;;14.80;99.90;;;;;;4951510;29;20203;-73
2021/07/05 00:30:47;;;;;;;0.00;0.00;;;14.80;99.90;;;;;;4951461;29;20211;-73
2021/07/05 00:33:14;;;;;;;0.13;0.13;;;14.70;99.90;;;;;;4951236;29;20198;-74
2021/07/05 00:35:41;;;;;;;0.00;0.00;;;14.70;99.90;;;;;;4951014;29;20250;-72
2021/07/05 00:38:08;;;;;;;0.00;0.00;;;14.70;99.90;;;;;;4953406;28;20203;-71
2021/07/05 00:40:35;;;;;;;0.00;0.00;;;14.70;99.90;;;;;;4951320;29;20270;-75
2021/07/05 00:43:04;;;;;;;0.00;0.00;;;14.70;99.90;;;;;;4951472;29;20199;-71
2021/07/05 00:45:35;;;;;;;0.00;0.00;;;14.70;99.90;;;;;;4951588;29;20266;-74
2021/07/05 00:48:02;;;;;;;0.00;0.00;;;14.70;99.90;;;;;;4951469;29;20600;-73
2021/07/05 00:50:29;;;;;;;0.00;0.00;;;14.70;99.90;;;;;;4949281;29;20661;-70
2021/07/05 00:52:59;;;;;;;0.00;0.00;;;14.70;99.90;;;;;;4951130;29;20265;-76
2021/07/05 00:55:27;;;;;;;0.00;0.00;;;14.70;99.90;;;;;;4950414;29;20227;-74
2021/07/05 00:57:54;;;;;;;0.00;0.00;;;14.70;99.90;;;;;;4953216;28;20202;-74
2021/07/05 01:00:24;;;;;;;0.00;0.00;;;14.70;99.90;;;;;;4970428;28;20202;-74
2021/07/05 01:02:54;;;;;;;0.00;0.00;;;14.70;99.90;;;;;;4967752;28;20261;-74
2021/07/05 01:05:23;;;;;;;0.00;0.00;;;14.80;99.90;;;;;;4967325;28;20305;-75
2021/07/05 01:07:50;;;;;;;0.00;0.00;;;14.80;99.90;;;;;;4966179;28;20842;-73
2021/07/05 01:10:21;;;;;;;0.03;0.03;;;14.80;99.90;;;;;;4953462;28;20227;-73
2021/07/05 01:12:50;;;;;;;1.40;0.93;;;14.80;99.90;;;;;;4954164;29;20191;-74
2021/07/05 01:15:20;;;;;;;0.00;0.00;;;14.80;99.90;;;;;;4954140;29;20230;-73
2021/07/05 01:17:49;;;;;;;0.00;0.00;;;14.80;99.90;;;;;;4954363;29;20199;-74
2021/07/05 01:20:19;;;;;;;0.00;0.00;;;14.80;99.90;;;;;;4954157;29;20263;-74
2021/07/05 01:22:48;;;;;;;0.00;0.00;;;14.80;99.90;;;;;;4953815;29;20565;-73
2021/07/05 01:25:17;;;;;;;0.00;0.00;;;14.80;99.90;;;;;;4972927;28;20619;-73
2021/07/05 01:27:45;;;;;;;0.13;0.13;;;14.80;99.90;;;;;;4973403;28;20754;-73
2021/07/05 01:30:16;;;;;;;0.10;0.10;;;14.80;99.90;;;;;;4973116;28;20202;-71
2021/07/05 01:32:43;;;;;;;0.00;0.00;;;14.80;99.90;;;;;;4973565;28;20539;-75
2021/07/05 01:35:12;;;;;;;0.00;0.00;;;14.70;99.90;;;;;;4973320;28;20636;-72
2021/07/05 01:37:39;;;;;;;0.00;0.00;;;14.70;99.90;;;;;;4960768;28;20575;-72
2021/07/05 01:40:13;;;;;;;0.27;0.27;;;14.70;99.90;;;;;;4953289;29;20259;-73
2021/07/05 01:42:40;;;;;;;0.00;0.00;;;14.70;99.90;;;;;;4954241;29;20198;-75
2021/07/05 01:45:09;;;;;;;0.00;0.00;;;14.70;99.90;;;;;;4952831;29;20210;-75
2021/07/05 01:47:36;;;;;;;0.37;0.23;;;14.70;99.90;;;;;;4953766;29;20203;-74
2021/07/05 01:50:04;;;;;;;0.00;0.00;;;14.70;99.90;;;;;;4953812;28;20203;-73
2021/07/05 01:52:31;;;;;;;0.00;0.00;;;14.70;99.90;;;;;;4956220;28;20656;-72
2021/07/05 01:54:58;;;;;;;0.00;0.00;;;14.70;99.90;;;;;;4968320;28;20504;-70
2021/07/05 01:57:26;;;;;;;0.00;0.00;;;14.70;99.90;;;;;;4952665;28;20608;-75
2021/07/05 01:59:55;;;;;;;0.40;0.40;;;14.70;99.90;;;;;;4958655;28;20198;-76
2021/07/05 02:02:22;;;;;;;0.00;0.00;;;14.70;99.90;;;;;;4969223;28;20251;-73
2021/07/05 02:04:49;;;;;;;0.30;0.23;;;14.60;99.90;;;;;;4953325;29;20246;-76
2021/07/05 02:07:17;;;;;;;0.00;0.00;;;14.60;99.90;;;;;;4952521;29;20253;-71
2021/07/05 02:09:44;;;;;;;0.00;0.00;;;14.60;99.90;;;;;;4953581;29;20294;-73
2021/07/05 02:12:12;;;;;;;0.00;0.00;;;14.60;99.90;;;;;;4953075;29;20199;-74
2021/07/05 02:14:40;;;;;;;0.13;0.13;;;14.60;99.90;;;;;;4951170;28;20232;-72
2021/07/05 02:17:10;;;;;;;0.00;0.00;;;14.60;99.90;;;;;;4956885;28;20253;-72
2021/07/05 02:19:37;;;;;;;0.10;0.10;;;14.60;99.90;;;;;;4972836;28;20198;-73
2021/07/05 02:22:05;;;;;;;0.00;0.00;;;14.60;99.90;;;;;;4972506;28;20205;-70
2021/07/05 02:24:32;;;;;;;0.00;0.00;;;14.60;99.90;;;;;;4972744;28;20239;-75
2021/07/05 02:26:59;;;;;;;2.47;2.33;;;14.60;99.90;;;;;;4972068;28;20202;-75
2021/07/05 02:29:26;;;;;;;0.00;0.00;;;14.60;99.90;;;;;;4970381;28;20202;-73
2021/07/05 02:31:54;;;;;;;0.33;0.20;;;14.60;99.90;;;;;;4956588;28;20207;-71
2021/07/05 02:34:21;;;;;;;0.00;0.00;;;14.60;99.90;;;;;;4966051;28;20714;-72
2021/07/05 02:36:50;;;;;;;0.00;0.00;;;14.60;99.90;;;;;;4969627;28;20241;-73
2021/07/05 02:39:18;;;;;;;0.00;0.00;;;14.60;99.90;;;;;;4952920;29;20199;-72
2021/07/05 02:41:45;;;;;;;0.00;0.00;;;14.50;99.90;;;;;;4953017;29;20287;-75
2021/07/05 02:44:13;;;;;;;0.10;0.10;;;14.60;99.90;;;;;;4952780;29;20199;-73
2021/07/05 02:46:39;;;;;;;0.00;0.00;;;14.50;99.90;;;;;;4952521;29;20627;-74
2021/07/05 02:49:08;;;;;;;0.00;0.00;;;14.50;99.90;;;;;;4966289;28;20541;-70
2021/07/05 02:51:36;;;;;;;0.27;0.27;;;14.60;99.90;;;;;;4971566;28;20719;-74
2021/07/05 02:54:03;;;;;;;0.00;0.00;;;14.50;99.90;;;;;;4972035;28;20613;-74
2021/07/05 02:56:30;;;;;;;0.00;0.00;;;14.50;99.90;;;;;;4953617;28;20786;-74
2021/07/05 02:58:57;;;;;;;0.20;0.20;;;14.50;99.90;;;;;;4951132;29;20198;-74
2021/07/05 03:01:25;;;;;;;0.07;0.07;;;14.50;99.90;;;;;;4952615;29;20549;-74
2021/07/05 03:03:52;;;;;;;0.00;0.00;;;14.50;99.90;;;;;;4951541;29;20195;-74
2021/07/05 03:06:21;;;;;;;0.00;0.00;;;14.50;99.90;;;;;;4951950;29;20719;-73
2021/07/05 03:08:48;;;;;;;0.53;0.43;;;14.50;99.90;;;;;;4951057;29;20203;-74
2021/07/05 03:11:15;;;;;;;0.00;0.00;;;14.50;99.90;;;;;;4950113;29;20254;-72
2021/07/05 03:13:42;;;;;;;0.00;0.00;;;14.50;99.90;;;;;;4953771;28;20194;-73
2021/07/05 03:16:09;;;;;;;1.23;0.50;;;14.50;99.90;;;;;;4971130;28;20896;-74
2021/07/05 03:18:36;;;;;;;0.57;0.57;;;14.50;99.90;;;;;;4971317;28;20202;-73
2021/07/05 03:21:03;;;;;;;0.00;0.00;;;14.50;99.90;;;;;;4971294;28;20851;-75
2021/07/05 03:23:32;;;;;;;0.00;0.00;;;14.50;99.90;;;;;;4957821;28;20210;-71
2021/07/05 03:25:59;;;;;;;0.00;0.00;;;14.50;99.90;;;;;;4970498;28;20206;-72
2021/07/05 03:28:26;;;;;;;0.00;0.00;;;14.50;99.90;;;;;;4950542;28;20202;-70
2021/07/05 03:30:54;;;;;;;0.00;0.00;;;14.40;99.90;;;;;;4951917;29;20541;-74
2021/07/05 03:33:21;;;;;;;0.00;0.00;;;14.40;99.90;;;;;;4949874;29;20198;-72
2021/07/05 03:35:50;;;;;;;0.00;0.00;;;14.40;99.90;;;;;;4952644;28;20227;-73
2021/07/05 03:38:18;;;;;;;0.00;0.00;;;14.40;99.90;;;;;;4949918;28;20209;-75
2021/07/05 03:40:48;;;;;;;0.00;0.00;;;14.40;99.90;;;;;;4968714;28;20241;-74
2021/07/05 03:43:16;;;;;;;0.00;0.00;;;14.40;99.90;;;;;;4960402;28;20199;-74
2021/07/05 03:45:43;;;;;;;0.00;0.00;;;14.40;99.90;;;;;;4951078;29;20426;-76
2021/07/05 03:48:11;;;;;;;0.10;0.10;;;14.40;99.90;;;;;;4954863;28;20202;-74
2021/07/05 03:50:39;;;;;;;0.00;0.00;;;14.40;99.90;;;;;;4967139;28;20228;-73
2021/07/05 03:53:07;;;;;;;0.00;0.00;;;14.40;99.90;;;;;;4956766;28;20290;-74
2021/07/05 03:55:35;;;;;;;0.33;0.10;;;14.50;99.90;;;;;;4951760;28;20290;-72
2021/07/05 03:58:05;;;;;;;0.00;0.00;;;14.50;99.90;;;;;;4951716;29;20286;-74
2021/07/05 04:00:34;;;;;;;0.00;0.00;;;14.50;99.90;;;;;;4951450;29;20199;-72
2021/07/05 04:03:02;;;;;;;0.00;0.00;;;14.50;99.90;;;;;;4950725;28;20711;-72
2021/07/05 04:05:29;;;;;;;0.00;0.00;;;14.50;99.90;;;;;;4961933;28;20234;-74
2021/07/05 04:07:57;;;;;;;0.00;0.00;;;14.60;99.90;;;;;;4955816;28;20206;-71
2021/07/05 04:10:24;;;;;;;0.00;0.00;;;14.60;99.90;;;;;;4967152;28;20214;-75
2021/07/05 04:12:51;;;;;;;0.00;0.00;;;14.50;99.90;;;;;;4961889;28;20687;-74
2021/07/05 04:15:20;;;;;;;0.00;0.00;;;14.50;99.90;;;;;;4951387;28;20210;-72
2021/07/05 04:17:47;;;;;;;0.00;0.00;;;14.50;99.90;;;;;;4951397;29;20199;-71
2021/07/05 04:20:16;;;;;;;0.00;0.00;;;14.60;99.90;;;;;;4955252;28;20280;-69
2021/07/05 04:22:44;;;;;;;0.30;0.20;;;14.60;99.90;;;;;;4957068;28;20888;-71
2021/07/05 04:25:14;;;;;;;0.00;0.00;;;14.60;99.90;;;;;;4966424;28;20229;-72
2021/07/05 04:27:41;;;;;;;0.00;0.00;;;14.60;99.90;;;;;;4961167;28;20257;-75
2021/07/05 04:30:09;;;;;;;0.00;0.00;;;14.60;99.90;;;;;;4949564;28;21179;-74
2021/07/05 04:32:38;;;;;;;0.00;0.00;;;14.60;99.90;;;;;;4956626;28;20431;-77
2021/07/05 04:35:08;;;;;;;0.00;0.00;;;14.70;99.90;;;;;;4949999;28;20207;-70
2021/07/05 04:37:37;;;;;;;0.10;0.10;;;14.70;99.90;;;;;;4950870;28;20353;-74
2021/07/05 04:40:05;;;;;;;0.00;0.00;;;14.80;99.90;;;;;;4955117;29;20254;-75
2021/07/05 04:42:32;;;;;;;0.00;0.00;;;14.80;99.90;;;;;;4954149;28;20203;-72
2021/07/05 04:44:59;;;;;;;0.00;0.00;;;14.90;99.90;;;;;;4954596;29;20720;-76
2021/07/05 04:47:26;;;;;;;0.00;0.00;;;15.00;99.90;;;;;;4954407;29;20206;-74
2021/07/05 04:49:54;;;;;;;0.03;0.03;;;15.10;99.90;;;;;;4953709;29;20235;-75
2021/07/05 04:52:21;;;;;;;0.00;0.00;;;15.20;99.90;;;;;;4955324;28;20199;-75
2021/07/05 04:54:48;;;;;;;0.37;0.37;;;15.30;99.90;;;;;;4954434;29;20207;-74
2021/07/05 04:57:15;;;;;;;0.20;0.20;;;15.40;99.90;;;;;;4951922;28;20281;-72
2021/07/05 04:59:42;;;;;;;0.20;0.10;;;15.50;99.90;;;;;;4953541;28;20265;-74
2021/07/05 05:02:09;;;;;;;0.00;0.00;;;15.50;99.90;;;;;;4953759;29;20199;-72
2021/07/05 05:04:36;;;;;;;0.20;0.20;;;15.50;99.90;;;;;;4952814;28;20297;-75
2021/07/05 05:07:05;;;;;;;0.00;0.00;;;15.50;99.90;;;;;;4953412;28;20207;-75
2021/07/05 05:09:32;;;;;;;0.00;0.00;;;15.60;99.90;;;;;;4950771;28;20214;-77
2021/07/05 05:11:59;;;;;;;0.00;0.00;;;15.60;99.90;;;;;;4948312;28;20210;-73
2021/07/05 05:14:26;;;;;;;0.00;0.00;;;15.60;99.90;;;;;;4941969;28;20199;-76
2021/07/05 05:16:53;;;;;;;0.40;0.40;;;15.70;99.90;;;;;;4967675;28;20233;-73
2021/07/05 05:19:20;;;;;;;0.00;0.00;;;15.70;99.90;;;;;;4973343;28;20403;-77
2021/07/05 05:21:46;;;;;;;0.17;0.17;;;15.70;99.90;;;;;;4953838;28;20211;-76
2021/07/05 05:24:15;;;;;;;0.37;0.37;;;15.70;99.90;;;;;;4934811;29;20653;-78
2021/07/05 05:26:42;;;;;;;0.00;0.00;;;15.80;99.90;;;;;;4935012;29;20235;-74
2021/07/05 05:29:09;;;;;;;0.20;0.20;;;15.90;99.90;;;;;;4940779;29;20214;-73
2021/07/05 05:31:36;;;;;;;0.53;0.27;;;16.00;99.90;;;;;;4952853;29;20559;-72
2021/07/05 05:34:04;;;;;;;0.00;0.00;;;16.00;99.90;;;;;;4952643;29;20222;-75
2021/07/05 05:36:31;;;;;;;0.00;0.00;;;16.00;99.90;;;;;;4952983;29;20231;-77
2021/07/05 05:39:00;;;;;;;0.00;0.00;;;16.10;99.90;;;;;;4952695;29;20616;-74
2021/07/05 05:41:29;;;;;;;0.00;0.00;;;16.20;99.90;;;;;;4953564;29;20781;-75
2021/07/05 05:43:59;;;;;;;0.00;0.00;;;16.50;99.90;;;;;;4960338;28;20285;-72
2021/07/05 05:46:29;;;;;;;0.00;0.00;;;16.60;99.90;;;;;;4970843;28;20229;-75
2021/07/05 05:48:56;;;;;;;0.00;0.00;;;16.80;99.90;;;;;;4972357;28;20567;-75
2021/07/05 05:51:26;;;;;;;0.10;0.10;;;16.80;99.90;;;;;;4968309;28;20196;-71
2021/07/05 05:53:54;;;;;;;0.00;0.00;;;16.80;99.90;;;;;;4954050;29;20202;-72
2021/07/05 05:56:21;;;;;;;0.00;0.00;;;16.80;99.90;;;;;;4953431;29;20306;-74
2021/07/05 05:58:49;;;;;;;6.03;0.60;;;16.80;99.90;;;;;;4952925;29;20199;-77
2021/07/05 06:01:16;;;;;;;0.00;0.00;;;16.80;99.90;;;;;;4940868;28;20198;-73
2021/07/05 06:03:43;;;;;;;1.03;1.03;;;16.80;99.90;;;;;;4940747;28;20199;-78
2021/07/05 06:06:10;;;;;;;0.00;0.00;;;17.00;99.90;;;;;;4942024;28;20269;-74
2021/07/05 06:08:37;;;;;;;0.67;0.67;;;17.20;99.90;;;;;;4940375;29;20254;-75
2021/07/05 06:11:04;;;;;;;0.00;0.00;;;17.50;99.90;;;;;;4945461;28;20822;-76
2021/07/05 06:13:31;;;;;;;0.50;0.50;;;17.80;99.90;;;;;;4956591;28;20771;-71
2021/07/05 06:16:00;;;;;;;0.00;0.00;;;18.00;99.90;;;;;;4951730;29;20661;-73
2021/07/05 06:18:27;;;;;;;0.00;0.00;;;18.20;99.90;;;;;;4967446;28;20228;-72
2021/07/05 06:20:54;;;;;;;0.00;0.00;;;18.40;99.90;;;;;;4967518;28;20206;-73
2021/07/05 06:23:25;;;;;;;0.20;0.20;;;18.50;99.90;;;;;;4969909;28;20207;-72
2021/07/05 06:25:52;;;;;;;0.00;0.00;;;18.50;99.90;;;;;;4972285;28;20194;-74
2021/07/05 06:28:20;;;;;;;2.63;0.63;;;18.50;99.90;;;;;;4972336;28;20198;-76
2021/07/05 06:30:48;;;;;;;0.00;0.00;;;18.40;99.90;;;;;;4967266;28;20277;-74
2021/07/05 06:33:18;;;;;;;0.00;0.00;;;18.30;99.90;;;;;;4949741;28;20217;-73
2021/07/05 06:35:46;;;;;;;0.10;0.10;;;18.10;99.90;;;;;;4945290;29;20279;-72
2021/07/05 06:38:16;;;;;;;0.00;0.00;;;17.90;99.90;;;;;;4942924;29;20255;-73
2021/07/05 06:40:44;;;;;;;0.40;0.10;;;17.80;99.90;;;;;;4942123;29;20208;-74
2021/07/05 06:43:12;;;;;;;0.40;0.40;;;17.70;99.90;;;;;;4939016;28;20216;-73
2021/07/05 06:45:39;;;;;;;0.00;0.00;;;17.60;99.90;;;;;;4937708;28;21793;-73
2021/07/05 06:48:07;;;;;;;0.23;0.23;;;17.60;99.90;;;;;;4939813;28;20270;-71
2021/07/05 06:50:36;;;;;;;0.00;0.00;;;17.60;99.90;;;;;;4942539;29;21211;-72
2021/07/05 06:53:04;;;;;;;0.00;0.00;;;17.50;99.90;;;;;;4941564;29;20215;-69
2021/07/05 06:55:31;;;;;;;1.20;0.70;;;17.50;99.90;;;;;;4945080;29;20203;-73
2021/07/05 06:57:58;;;;;;;0.00;0.00;;;17.50;99.90;;;;;;4943393;29;20700;-73
2021/07/05 07:00:28;;;;;;;0.10;0.10;;;17.40;99.90;;;;;;4945510;28;20806;-72
2021/07/05 07:02:56;;;;;;;0.00;0.00;;;17.40;99.90;;;;;;4952733;28;20686;-71
2021/07/05 07:05:24;;;;;;;0.00;0.00;;;17.30;99.90;;;;;;4942246;29;20242;-73
2021/07/05 07:07:54;;;;;;;0.20;0.20;;;17.30;99.90;;;;;;4939264;29;20222;-74
2021/07/05 07:10:25;;;;;;;0.10;0.10;;;17.30;99.90;;;;;;4939938;29;20195;-73
2021/07/05 07:12:54;;;;;;;0.00;0.00;;;17.40;99.90;;;;;;4939747;29;20203;-69
2021/07/05 07:15:24;;;;;;;0.07;0.07;;;17.40;99.90;;;;;;4942997;29;20211;-73
2021/07/05 07:17:54;;;;;;;0.00;0.00;;;17.40;99.90;;;;;;4942990;29;20218;-72
2021/07/05 07:20:21;;;;;;;0.00;0.00;;;17.40;99.90;;;;;;4942415;29;20214;-71
2021/07/05 07:22:48;;;;;;;0.47;0.47;;;17.40;99.90;;;;;;4942509;28;20221;-74
2021/07/05 07:25:16;;;;;;;0.30;0.20;;;17.30;99.90;;;;;;4945494;28;20207;-73
2021/07/05 07:27:44;;;;;;;0.00;0.00;;;17.20;99.90;;;;;;4943733;28;20265;-74
2021/07/05 07:30:14;;;;;;;0.00;0.00;;;17.20;99.90;;;;;;4944998;29;20254;-72
2021/07/05 07:32:41;;;;;;;0.23;0.23;;;17.20;99.90;;;;;;4946110;29;20662;-71
2021/07/05 07:35:09;;;;;;;0.07;0.07;;;17.20;99.90;;;;;;4943197;29;20207;-74
2021/07/05 07:37:38;;;;;;;0.20;0.20;;;17.20;99.90;;;;;;4944409;29;20227;-72
2021/07/05 07:40:14;;;;;;;1.70;1.60;;;17.40;99.90;;;;;;4941127;29;20211;-73
2021/07/05 07:42:42;;;;;;;0.00;0.00;;;17.40;99.90;;;;;;4944862;29;20672;-71
2021/07/05 07:45:11;;;;;;;0.00;0.00;;;17.50;99.90;;;;;;4938082;29;20203;-74
2021/07/05 07:47:38;;;;;;;0.00;0.00;;;17.50;99.90;;;;;;4938900;29;20262;-72
2021/07/05 07:50:06;;;;;;;0.00;0.00;;;17.60;99.90;;;;;;4937289;29;20202;-74
2021/07/05 07:52:33;;;;;;;0.10;0.10;;;17.60;99.90;;;;;;4938292;29;20646;-73
2021/07/05 07:55:02;;;;;;;0.20;0.20;;;17.50;99.90;;;;;;4939206;28;20254;-70
2021/07/05 07:57:29;;;;;;;0.00;0.00;;;17.50;99.90;;;;;;4939695;29;20279;-73
2021/07/05 07:59:57;;;;;;;0.00;0.00;;;17.50;99.90;;;;;;4937627;28;20831;-74
2021/07/05 08:02:24;;;;;;;0.00;0.00;;;17.60;99.90;;;;;;4937766;29;20523;-75
2021/07/05 08:04:51;;;;;;;0.00;0.00;;;17.70;99.90;;;;;;4937449;29;20309;-75
2021/07/05 08:07:18;;;;;;;0.00;0.00;;;17.70;99.90;;;;;;4938671;29;20214;-73
2021/07/05 08:09:45;;;;;;;0.00;0.00;;;17.90;99.90;;;;;;4937368;29;20908;-72
2021/07/05 08:12:12;;;;;;;0.00;0.00;;;18.10;99.90;;;;;;4953802;28;20199;-74
2021/07/05 08:14:40;;;;;;;0.00;0.00;;;18.20;99.90;;;;;;4968750;28;20440;-74
2021/07/05 08:17:08;;;;;;;0.00;0.00;;;18.30;99.90;;;;;;4974443;28;20230;-71
2021/07/05 08:19:35;;;;;;;0.00;0.00;;;18.30;99.90;;;;;;4958513;28;20207;-69
2021/07/05 08:22:02;;;;;;;0.00;0.00;;;18.10;99.90;;;;;;4950762;28;20196;-74
2021/07/05 08:24:29;;;;;;;0.10;0.10;;;18.00;99.90;;;;;;4935543;29;20195;-72
2021/07/05 08:26:56;;;;;;;0.00;0.00;;;17.90;99.90;;;;;;4966581;28;20233;-73
2021/07/05 08:29:23;;;;;;;0.00;0.00;;;17.80;99.90;;;;;;4959581;28;20234;-72
2021/07/05 08:31:50;;;;;;;0.00;0.00;;;17.80;99.90;;;;;;4954519;29;20860;-71
2021/07/05 08:34:19;;;;;;;0.00;0.00;;;17.70;99.90;;;;;;4954737;29;20652;-70
2021/07/05 08:36:46;;;;;;;0.00;0.00;;;17.60;99.90;;;;;;4954185;29;20219;-74
2021/07/05 08:39:14;;;;;;;0.00;0.00;;;17.70;99.90;;;;;;4951554;28;20726;-70
2021/07/05 08:41:41;;;;;;;0.10;0.10;;;17.70;99.90;;;;;;4950362;29;20640;-72
2021/07/05 08:44:08;;;;;;;0.00;0.00;;;17.70;99.90;;;;;;4947599;29;20195;-69
2021/07/05 08:46:36;;;;;;;0.00;0.00;;;17.70;99.90;;;;;;4945518;29;20207;-71
2021/07/05 08:49:04;;;;;;;0.03;0.03;;;17.70;99.90;;;;;;4940514;29;20207;-71
2021/07/05 08:51:32;;;;;;;0.20;0.20;;;17.80;99.90;;;;;;4943165;29;20703;-73
2021/07/05 08:54:00;;;;;;;0.10;0.10;;;17.80;99.90;;;;;;4943343;28;20580;-73
2021/07/05 08:56:27;;;;;;;0.00;0.00;;;17.80;99.90;;;;;;4944106;29;20206;-74
2021/07/05 08:58:54;;;;;;;0.10;0.10;;;17.90;99.90;;;;;;4942213;29;20287;-71
2021/07/05 09:01:21;;;;;;;0.00;0.00;;;17.90;99.90;;;;;;4946613;29;20199;-76
2021/07/05 09:03:50;;;;;;;0.20;0.10;;;17.90;99.90;;;;;;4946431;29;20206;-75
2021/07/05 09:06:19;;;;;;;0.17;0.17;;;17.90;99.90;;;;;;4941885;29;20708;-74
2021/07/05 09:09:12;;;;;;;0.00;0.00;;;17.80;99.90;;;;;;4941952;28;20211;-76
2021/07/05 09:11:41;;;;;;;0.00;0.00;;;17.70;99.90;;;;;;4945529;29;20206;-75
2021/07/05 09:14:16;;;;;;;0.00;0.00;;;17.60;99.90;;;;;;4945750;28;20254;-76
2021/07/05 09:16:45;;;;;;;0.07;0.07;;;17.50;99.90;;;;;;4941806;29;20740;-77
2021/07/05 09:19:18;;;;;;;0.57;0.57;;;17.30;99.90;;;;;;4943824;29;20789;-76
2021/07/05 09:21:51;;;;;;;0.00;0.00;;;17.20;99.90;;;;;;4942267;28;20195;-75
2021/07/05 09:24:29;;;;;;;0.00;0.00;;;17.10;99.90;;;;;;4943828;29;20202;-76
2021/07/05 09:27:09;;;;;;;0.00;0.00;;;17.00;99.90;;;;;;4943630;29;20289;-71
2021/07/05 09:29:37;;;;;;;0.50;0.30;;;17.00;99.90;;;;;;4944359;28;20674;-74
2021/07/05 09:32:06;;;;;;;0.07;0.07;;;17.00;99.90;;;;;;4959519;28;20652;-75
2021/07/05 09:34:36;;;;;;;0.07;0.07;;;17.00;99.90;;;;;;4951330;28;20206;-72
2021/07/05 09:37:20;;;;;;;0.00;0.00;;;17.00;99.90;;;;;;4944329;29;20262;-75
2021/07/05 09:40:11;;;;;;;0.00;0.00;;;17.00;99.90;;;;;;4948140;29;20202;-75
2021/07/05 09:42:41;;;;;;;0.00;0.00;;;16.80;99.90;;;;;;4940385;29;20210;-74
2021/07/05 09:45:10;;;;;;;0.00;0.00;;;16.80;99.90;;;;;;4941957;29;20228;-78
2021/07/05 09:47:37;;;;;;;0.00;0.00;;;16.80;99.90;;;;;;4941469;28;20599;-74
2021/07/05 09:50:11;;;;;;;0.83;0.83;;;16.70;99.90;;;;;;4940947;28;20210;-78
2021/07/05 09:52:38;;;;;;;0.00;0.00;;;16.70;99.90;;;;;;4938386;28;20199;-72
2021/07/05 09:55:11;;;;;;;0.00;0.00;;;16.70;99.90;;;;;;4968691;28;20206;-79
2021/07/05 09:57:43;;;;;;;1.60;0.60;;;16.60;99.90;;;;;;4956436;28;20688;-76
2021/07/05 10:00:17;;;;;;;0.00;0.00;;;16.60;99.90;;;;;;4951426;28;20266;-82
2021/07/05 10:03:01;;;;;;;0.00;0.00;;;16.50;99.90;;;;;;4952925;29;20191;-74
2021/07/05 10:05:33;;;;;;;0.00;0.00;;;16.40;99.90;;;;;;4952923;29;20227;-81
2021/07/05 10:08:03;;;;;;;0.00;0.00;;;16.30;99.90;;;;;;4969202;28;20205;-75
2021/07/05 10:10:31;;;;;;;0.00;0.00;;;16.30;99.90;;;;;;4972246;28;20220;-74
2021/07/05 10:13:00;;;;;;;0.00;0.00;;;16.30;99.90;;;;;;4964299;28;20202;-81
2021/07/05 10:15:29;;;;;;;0.00;0.00;;;16.30;99.90;;;;;;4952553;29;20712;-76
2021/07/05 10:17:57;;;;;;;0.00;0.00;;;16.40;99.90;;;;;;4952755;29;20242;-73
2021/07/05 10:20:26;;;;;;;0.00;0.00;;;16.50;99.90;;;;;;4953899;28;20199;-71
2021/07/05 10:22:55;;;;;;;0.00;0.00;;;16.60;99.90;;;;;;4960651;28;20207;-73
2021/07/05 10:25:23;;;;;;;0.00;0.00;;;16.70;99.90;;;;;;4949370;28;20621;-76
2021/07/05 10:27:52;;;;;;;0.00;0.00;;;16.70;99.90;;;;;;4965173;28;20259;-74
2021/07/05 10:30:21;;;;;;;0.00;0.00;;;16.90;99.90;;;;;;4944270;29;20285;-73
2021/07/05 10:32:50;;;;;;;0.10;0.10;;;17.00;99.90;;;;;;4944216;29;20310;-73
2021/07/05 10:35:20;;;;;;;0.07;0.07;;;17.10;99.90;;;;;;4943037;28;20603;-72
2021/07/05 10:37:54;;;;;;;0.00;0.00;;;17.20;99.90;;;;;;4938957;28;20224;-78
2021/07/05 10:40:25;;;;;;;0.00;0.00;;;17.40;99.90;;;;;;4934200;29;20199;-77
2021/07/05 10:42:58;;;;;;;0.00;0.00;;;17.60;99.90;;;;;;4944822;29;20203;-76
2021/07/05 10:45:40;;;;;;;0.00;0.00;;;17.70;99.90;;;;;;4944908;29;20858;-72
2021/07/05 10:48:07;;;;;;;0.00;0.00;;;17.60;99.90;;;;;;4939894;29;20334;-76
2021/07/05 10:50:55;;;;;;;0.00;0.00;;;17.70;99.90;;;;;;4940672;29;20266;-77
2021/07/05 10:53:55;;;;;;;0.00;0.00;;;17.80;99.90;;;;;;4939670;28;20203;-73
2021/07/05 10:56:36;;;;;;;0.23;0.23;;;17.90;99.90;;;;;;4936685;29;20234;-74
2021/07/05 10:59:39;;;;;;;0.00;0.00;;;18.00;99.90;;;;;;4940218;29;20223;-77
2021/07/05 11:02:38;;;;;;;0.00;0.00;;;18.10;99.90;;;;;;4922391;29;20207;-70
2021/07/05 11:05:26;;;;;;;0.00;0.00;;;18.50;99.90;;;;;;4934605;28;20234;-74
2021/07/05 11:07:55;;;;;;;0.00;0.00;;;18.80;99.90;;;;;;4936338;29;20199;-76
2021/07/05 11:10:29;;;;;;;0.00;0.00;;;19.30;99.90;;;;;;4938470;28;20199;-73
2021/07/05 11:13:00;;;;;;;0.20;0.20;;;19.40;99.90;;;;;;4937400;29;20313;-74
2021/07/05 11:15:54;;;;;;;0.00;0.00;;;19.60;99.90;;;;;;4934124;29;20592;-74
2021/07/05 11:19:10;;;;;;;0.00;0.00;;;19.90;99.90;;;;;;4937839;28;20453;-71
2021/07/05 11:21:58;;;;;;;0.00;0.00;;;19.70;99.90;;;;;;4937070;28;20206;-74
2021/07/05 11:24:43;;;;;;;0.00;0.00;;;19.90;99.90;;;;;;4939987;29;20734;-76
2021/07/05 11:27:48;;;;;;;0.00;0.00;;;20.10;99.90;;;;;;4937159;29;20195;-71
2021/07/05 11:30:24;;;;;;;0.00;0.00;;;20.20;99.90;;;;;;4940457;29;20206;-76
2021/07/05 11:32:54;;;;;;;0.10;0.10;;;20.20;99.90;;;;;;4951305;29;20242;-74
2021/07/05 11:35:33;;;;;;;0.00;0.00;;;20.40;99.90;;;;;;4952621;28;20202;-72
2021/07/05 11:38:04;;;;;;;0.00;0.00;;;20.40;99.90;;;;;;4954938;28;20246;-74
2021/07/05 11:40:53;;;;;;;0.00;0.00;;;20.40;99.90;;;;;;4941463;29;20195;-77
2021/07/05 11:43:43;;;;;;;0.00;0.00;;;20.10;99.90;;;;;;4939701;29;20234;-72
2021/07/05 11:46:11;;;;;;;0.70;0.70;;;19.90;99.90;;;;;;4947817;29;20242;-76
2021/07/05 11:48:57;;;;;;;0.00;0.00;;;19.90;99.90;;;;;;4942727;28;20199;-74
2021/07/05 11:51:27;;;;;;;0.00;0.00;;;20.00;99.90;;;;;;4936859;29;20197;-76
2021/07/05 11:53:56;;;;;;;0.10;0.10;;;20.30;99.90;;;;;;4937224;28;20199;-75
2021/07/05 11:56:33;;;;;;;0.08;0.08;;;20.50;99.90;;;;;;4942981;29;20743;-75
2021/07/05 11:59:01;;;;;;;0.00;0.00;;;21.10;99.90;;;;;;4941192;29;20286;-75
2021/07/05 12:01:29;;;;;;;0.00;0.00;;;21.90;99.90;;;;;;4941260;29;20266;-77
2021/07/05 12:03:59;;;;;;;0.15;0.15;;;22.60;99.90;;;;;;4939100;29;20278;-75
2021/07/05 12:06:27;;;;;;;0.65;0.20;;;23.10;99.90;;;;;;4939879;28;20207;-73
2021/07/05 12:08:56;;;;;;;0.00;0.00;;;23.40;99.90;;;;;;4950791;29;20203;-71
2021/07/05 12:11:31;;;;;;;0.00;0.00;;;23.70;99.90;;;;;;4950560;29;20211;-73
2021/07/05 12:14:07;;;;;;;0.00;0.00;;;24.00;99.90;;;;;;4949577;28;20933;-74
2021/07/05 12:16:34;;;;;;;0.00;0.00;;;23.70;99.90;;;;;;4950708;28;20210;-74
2021/07/05 12:19:04;;;;;;;0.00;0.00;;;23.30;99.90;;;;;;4950877;29;20254;-74
2021/07/05 12:21:33;;;;;;;0.00;0.00;;;23.00;99.90;;;;;;4947451;29;20222;-73
2021/07/05 12:24:11;;;;;;;0.00;0.00;;;22.70;99.90;;;;;;4950638;29;20553;-73
2021/07/05 12:26:53;;;;;;;0.00;0.00;;;22.50;99.90;;;;;;4950716;29;20257;-74
2021/07/05 12:29:24;;;;;;;0.00;0.00;;;22.20;99.90;;;;;;4956093;28;20190;-72
2021/07/05 12:31:57;;;;;;;0.00;0.00;;;21.90;99.90;;;;;;4970104;28;20193;-75
2021/07/05 12:34:43;;;;;;;0.00;0.00;;;21.60;99.90;;;;;;4970172;28;20190;-73
2021/07/05 12:37:15;;;;;;;0.00;0.00;;;21.30;99.90;;;;;;4970053;28;20186;-75
2021/07/05 12:39:47;;;;;;;0.00;0.00;;;21.00;99.90;;;;;;4969989;28;20245;-75
2021/07/05 12:42:39;;;;;;;0.00;0.00;;;20.90;99.90;;;;;;4967482;28;20257;-75
2021/07/05 12:45:19;;;;;;;0.00;0.00;;;21.00;99.90;;;;;;4966589;28;20703;-74
2021/07/05 12:47:49;;;;;;;0.00;0.00;;;21.40;99.90;;;;;;4969995;28;20199;-73
2021/07/05 12:50:19;;;;;;;0.00;0.00;;;21.60;99.90;;;;;;4969800;28;20218;-75
2021/07/05 12:53:04;;;;;;;0.00;0.00;;;21.70;99.90;;;;;;4950306;28;20214;-73
2021/07/05 12:55:31;;;;;;;0.00;0.00;;;21.80;99.90;;;;;;4950346;28;20223;-74
2021/07/05 12:57:58;;;;;;;0.00;0.00;;;21.90;99.90;;;;;;4969446;28;20205;-74
2021/07/05 13:00:27;;;;;;;0.00;0.00;;;21.60;99.90;;;;;;4960783;28;20207;-74
2021/07/05 13:03:09;;;;;;;0.00;0.00;;;21.50;99.90;;;;;;4947977;29;20266;-77